Map

Track Data

SID SEASON NUMBER BASIN SUBBASIN NAME ISO_TIME NATURE LAT LON WMO_WIND WMO_PRES WMO_AGENCY TRACK_TYPE DIST2LAND LANDFALL IFLAG USA_AGENCY USA_ATCF_ID USA_LAT USA_LON USA_RECORD USA_STATUS USA_WIND USA_PRES USA_SSHS USA_R34_NE USA_R34_SE USA_R34_SW USA_R34_NW USA_R50_NE USA_R50_SE USA_R50_SW USA_R50_NW USA_R64_NE USA_R64_SE USA_R64_SW USA_R64_NW USA_POCI USA_ROCI USA_RMW USA_EYE TOKYO_LAT TOKYO_LON TOKYO_GRADE TOKYO_WIND TOKYO_PRES TOKYO_R50_DIR TOKYO_R50_LONG TOKYO_R50_SHORT TOKYO_R30_DIR TOKYO_R30_LONG TOKYO_R30_SHORT TOKYO_LAND CMA_LAT CMA_LON CMA_CAT CMA_WIND CMA_PRES HKO_LAT HKO_LON HKO_CAT HKO_WIND HKO_PRES NEWDELHI_LAT NEWDELHI_LON NEWDELHI_GRADE NEWDELHI_WIND NEWDELHI_PRES NEWDELHI_CI NEWDELHI_DP NEWDELHI_POCI REUNION_LAT REUNION_LON REUNION_TYPE REUNION_WIND REUNION_PRES REUNION_TNUM REUNION_CI REUNION_RMW REUNION_R34_NE REUNION_R34_SE REUNION_R34_SW REUNION_R34_NW REUNION_R50_NE REUNION_R50_SE REUNION_R50_SW REUNION_R50_NW REUNION_R64_NE REUNION_R64_SE REUNION_R64_SW REUNION_R64_NW BOM_LAT BOM_LON BOM_TYPE BOM_WIND BOM_PRES BOM_TNUM BOM_CI BOM_RMW BOM_R34_NE BOM_R34_SE BOM_R34_SW BOM_R34_NW BOM_R50_NE BOM_R50_SE BOM_R50_SW BOM_R50_NW BOM_R64_NE BOM_R64_SE BOM_R64_SW BOM_R64_NW BOM_ROCI BOM_POCI BOM_EYE BOM_POS_METHOD BOM_PRES_METHOD NADI_LAT NADI_LON NADI_CAT NADI_WIND NADI_PRES WELLINGTON_LAT WELLINGTON_LON WELLINGTON_WIND WELLINGTON_PRES DS824_LAT DS824_LON DS824_STAGE DS824_WIND DS824_PRES TD9636_LAT TD9636_LON TD9636_STAGE TD9636_WIND TD9636_PRES TD9635_LAT TD9635_LON TD9635_WIND TD9635_PRES TD9635_ROCI NEUMANN_LAT NEUMANN_LON NEUMANN_CLASS NEUMANN_WIND NEUMANN_PRES MLC_LAT MLC_LON MLC_CLASS MLC_WIND MLC_PRES USA_GUST BOM_GUST BOM_GUST_PER REUNION_GUST REUNION_GUST_PER USA_SEAHGT USA_SEARAD_NE USA_SEARAD_SE USA_SEARAD_SW USA_SEARAD_NW STORM_SPEED STORM_DIR
2000050S13078 2000 11 SI MM FELICIA 2000-02-18 18:00:00 TS -13.3667 77.5333 20 1002 reunion main 2189 2189 O____O______O_ jtwc_sh SH122000 -13.3000 78.4000 TD 25 -1 -13.5000 75.8000 2 20 1002 1.50000 1.50000 -13.3000 78.4000 TC 25 4 0
2000050S13078 2000 11 SI MM FELICIA 2000-02-18 21:00:00 TS -13.5842 77.5574 main 2209 2209 P____P______P_ SH122000 -13.4625 78.2501 TD 25 -1 -13.8276 76.1722 2 20 1002 -13.4625 78.2501 TC 25 4 175
2000050S13078 2000 11 SI MM FELICIA 2000-02-19 00:00:00 TS -13.7667 77.5667 20 1002 reunion main 2225 2221 O____O______O_ jtwc_sh SH122000 -13.6000 78.1000 TD 25 -1 -14.1000 76.5000 2 20 1002 1.50000 1.50000 -13.6000 78.1000 TC 25 3 0
2000050S13078 2000 11 SI MM FELICIA 2000-02-19 03:00:00 TS -13.8933 77.5483 main 2211 2206 P____P______P_ SH122000 -13.7000 77.9500 TD 25 -1 -14.2799 76.7451 2 22 1001 -13.7000 77.9500 TC 25 2 197
2000050S13078 2000 11 SI MM FELICIA 2000-02-19 06:00:00 TS -14.0000 77.5000 25 1001 reunion main 2206 2192 O____O______O_ jtwc_sh SH122000 -13.8000 77.8000 TD 25 -1 -14.4000 76.9000 2 25 1001 1.50000 1.50000 -13.8000 77.8000 TC 25 3 208
2000050S13078 2000 11 SI MM FELICIA 2000-02-19 09:00:00 TS -14.1258 77.4292 main 2192 2174 P____P______P_ SH122000 -13.9350 77.6575 TD 25 -1 -14.5075 76.9725 2 25 1000 -13.9350 77.6575 TC 25 3 211
2000050S13078 2000 11 SI MM FELICIA 2000-02-19 12:00:00 TS -14.2667 77.3333 25 1000 reunion main 2174 2160 O____O______O_ jtwc_sh SH122000 -14.1000 77.5000 TD 25 -1 -14.6000 77.0000 2 25 1000 2.00000 2.00000 -14.1000 77.5000 TC 25 4 214
2000050S13078 2000 11 SI MM FELICIA 2000-02-19 15:00:00 TS -14.4233 77.2266 main 2160 2142 P____P______P_ SH122000 -14.2850 77.3150 TD 25 -1 -14.7000 77.0500 2 25 1000 -14.2850 77.3150 TC 25 4 214
2000050S13078 2000 11 SI MM FELICIA 2000-02-19 18:00:00 TS -14.6000 77.1000 25 1000 reunion main 2142 2125 O____O______O_ jtwc_sh SH122000 -14.5000 77.1000 TD 25 -1 -14.8000 77.1000 2 25 1000 2.00000 2.00000 -14.5000 77.1000 TC 25 5 214
2000050S13078 2000 11 SI MM FELICIA 2000-02-19 21:00:00 TS -14.8050 76.9600 main 2125 2097 P____P______P_ SH122000 -14.7575 76.8575 TD 27 -1 -14.9000 77.1650 2 25 1000 -14.7575 76.8575 TC 27 5 216
2000050S13078 2000 11 SI MM FELICIA 2000-02-20 00:00:00 TS -15.0000 76.8000 25 1000 reunion main 2097 2083 O____O______O_ jtwc_sh SH122000 -15.0000 76.6000 TD 30 -1 -15.0000 77.2000 2 25 1000 2.00000 2.00000 -15.0000 76.6000 TC 30 4 223
2000050S13078 2000 11 SI MM FELICIA 2000-02-20 03:00:00 TS -15.1307 76.6465 main 2073 2045 P____P______P_ SH122000 -15.1574 76.3574 TD 30 -1 -15.0773 77.2248 2 25 999 -15.1574 76.3574 TC 30 4 233
2000050S13078 2000 11 SI MM FELICIA 2000-02-20 06:00:00 TS -15.2667 76.4333 25 999 reunion main 2045 2008 O____O______O_ jtwc_sh SH122000 -15.3000 76.1000 TD 30 -1 -15.2000 77.1000 2 25 999 2.00000 2.00000 -15.3000 76.1000 TC 30 6 236
2000050S13078 2000 11 SI MM FELICIA 2000-02-20 09:00:00 TS -15.4708 76.1208 main 2008 1970 P____P______P_ SH122000 -15.4925 75.8150 TD 30 -1 -15.4275 76.7326 2 25 999 -15.4925 75.8150 TC 30 8 237
2000050S13078 2000 11 SI MM FELICIA 2000-02-20 12:00:00 TS -15.7000 75.7333 25 999 reunion main 1960 1912 O____O______O_ jtwc_sh SH122000 -15.7000 75.5000 TD 30 -1 -15.7000 76.2000 2 25 999 2.00000 2.00000 -15.7000 75.5000 TC 30 9 240
2000050S13078 2000 11 SI MM FELICIA 2000-02-20 15:00:00 TS -15.9167 75.3100 main 1912 1865 P____P______P_ SH122000 -15.9000 75.1575 TD 30 -1 -15.9501 75.6150 2 27 998 -15.9000 75.1575 TC 30 9 243
2000050S13078 2000 11 SI MM FELICIA 2000-02-20 18:00:00 TS -16.1333 74.8667 30 997 reunion main 1865 1818 O____O______O_ jtwc_sh SH122000 -16.1000 74.8000 TD 30 -1 -16.2000 75.0000 2 30 997 2.50000 2.50000 -16.1000 74.8000 TC 30 9 243
2000050S13078 2000 11 SI MM FELICIA 2000-02-20 21:00:00 TS -16.3400 74.4374 main 1807 1767 P____P______P_ SH122000 -16.2925 74.4424 TD 32 -1 -16.4349 74.4273 2 30 997 -16.2925 74.4424 TC 32 9 242
2000050S13078 2000 11 SI MM FELICIA 2000-02-21 00:00:00 TS -16.5667 74.0333 30 997 reunion main 1757 1720 O____O______O_ jtwc_sh SH122000 -16.5000 74.1000 TS 35 0 -16.7000 73.9000 2 30 997 2.50000 2.50000 -16.5000 74.1000 TC 35 9 235
2000050S13078 2000 11 SI MM FELICIA 2000-02-21 03:00:00 TS -16.8321 73.7130 main 1720 1680 P____P______P_ SH122000 -16.7197 73.8296 TS 35 0 -17.0569 73.4798 2 30 996 -16.7197 73.8296 TC 35 9 230
2000050S13078 2000 11 SI MM FELICIA 2000-02-21 06:00:00 TS -17.1333 73.3333 30 996 reunion main 1670 1610 O____O______O_ jtwc_sh SH122000 -17.0000 73.5000 TS 35 0 -17.4000 73.0000 2 30 996 2.50000 2.50000 -17.0000 73.5000 TC 35 11 237
2000050S13078 2000 11 SI MM FELICIA 2000-02-21 09:00:00 TS -17.4420 72.7366 main 1600 1528 P____P______P_ SH122000 -17.3701 72.9875 TS 35 0 -17.5857 72.2347 2 32 994 -17.3701 72.9875 TC 35 14 240
2000050S13078 2000 11 SI MM FELICIA 2000-02-21 12:00:00 TS -17.8000 72.1000 35 993 reunion main 1528 1467 O____O______O_ jtwc_sh SH122000 -17.8000 72.4000 TS 35 0 -17.8000 71.5000 3 35 993 3.00000 3.00000 -17.8000 72.4000 TC 35 13 234
2000050S13078 2000 11 SI MM FELICIA 2000-02-21 15:00:00 TS -18.2271 71.6162 main 1467 1415 P____P______P_ SH122000 -18.2422 71.8647 TS 37 0 -18.1968 71.1194 3 37 991 -18.2422 71.8647 TC 37 13 226
2000050S13078 2000 11 SI MM FELICIA 2000-02-21 18:00:00 TS -18.7000 71.1333 40 990 reunion main 1405 1346 O____O______O_ jtwc_sh SH122000 -18.7000 71.3000 TS 40 0 -18.7000 70.8000 3 40 990 3.00000 3.00000 -18.7000 71.3000 TC 40 14 228
2000050S13078 2000 11 SI MM FELICIA 2000-02-21 21:00:00 TS -19.1709 70.5216 main 1334 1266 P____P______P_ SH122000 -19.1352 70.6349 TS 42 0 -19.2424 70.2949 3 42 988 -19.1352 70.6349 TC 42 15 230
2000050S13078 2000 11 SI MM FELICIA 2000-02-22 00:00:00 TS -19.6667 69.9000 45 987 reunion main 1265 1209 O____O______O_ jtwc_sh SH122000 -19.6000 70.0000 TS 45 0 -19.8000 69.7000 3 45 987 3.50000 3.50000 -19.6000 70.0000 TC 45 15 227
2000050S13078 2000 11 SI MM FELICIA 2000-02-22 03:00:00 TS -20.1898 69.3605 main 1209 1156 P____P______P_ SH122000 -20.1346 69.5270 TS 47 0 -20.3003 69.0275 3 47 985 -20.1346 69.5270 TC 47 14 222
2000050S13078 2000 11 SI MM FELICIA 2000-02-22 06:00:00 TS -20.7333 68.8667 50 983 reunion main 1156 1106 O____O______O_ jtwc_sh SH122000 -20.7000 69.1000 TS 50 0 -20.8000 68.4000 3 50 983 3.50000 3.50000 -20.7000 69.1000 TC 50 14 221
2000050S13078 2000 11 SI MM FELICIA 2000-02-22 09:00:00 TS -21.2682 68.3747 main 1107 1069 P____P______P_ SH122000 -21.2425 68.5997 TS 50 0 -21.3198 67.9247 3 52 981 -21.2425 68.5997 TC 50 14 218
2000050S13078 2000 11 SI MM FELICIA 2000-02-22 12:00:00 TS -21.8333 67.9333 55 980 reunion main 1061 1039 O____O______O_ jtwc_sh SH122000 -21.8000 68.1000 TS 50 0 -21.9000 67.6000 3 55 980 4.00000 4.00000 -21.8000 68.1000 TC 50 14 212
2000050S13078 2000 11 SI MM FELICIA 2000-02-22 15:00:00 TS -22.4540 67.5653 main 1043 1023 P____P______P_ SH122000 -22.3849 67.6272 TS 57 0 -22.5922 67.4416 3 57 977 -22.3849 67.6272 TC 57 14 207
2000050S13078 2000 11 SI MM FELICIA 2000-02-22 18:00:00 TS -23.1000 67.2333 60 975 reunion main 1019 1007 O____O______O_ jtwc_sh SH122000 -23.0000 67.2000 TY 65 1 -23.3000 67.3000 3 60 975 4.00000 4.00000 -23.0000 67.2000 TC 65 14 207
2000050S13078 2000 11 SI MM FELICIA 2000-02-22 21:00:00 TS -23.7358 66.8683 main 1011 1003 P____P______P_ SH122000 -23.6424 66.8197 TY 65 1 -23.9227 66.9653 3 60 975 -23.6424 66.8197 TC 65 14 207
2000050S13078 2000 11 SI MM FELICIA 2000-02-23 00:00:00 TS -24.3667 66.5333 60 975 reunion main 1003 998 O____O______O_ jtwc_sh SH122000 -24.3000 66.5000 TY 65 1 -24.5000 66.6000 3 60 975 4.00000 4.00000 -24.3000 66.5000 TC 65 14 204
2000050S13078 2000 11 SI MM FELICIA 2000-02-23 03:00:00 TS -24.9833 66.2555 main 1014 1005 P____P______P_ SH122000 -24.9574 66.2272 TY 60 0 -25.0350 66.3123 3 60 975 -24.9574 66.2272 TC 60 13 200
2000050S13078 2000 11 SI MM FELICIA 2000-02-23 06:00:00 TS -25.6000 66.0333 60 975 reunion main 1022 1022 O____O______O_ jtwc_sh SH122000 -25.6000 66.0000 TS 55 0 -25.6000 66.1000 3 60 975 3.50000 4.00000 -25.6000 66.0000 TC 55 13 196
2000050S13078 2000 11 SI MM FELICIA 2000-02-23 09:00:00 TS -26.2357 65.8612 main 1051 1049 P____P______P_ SH122000 -26.2075 65.7848 TS 47 0 -26.2923 66.0140 3 57 976 -26.2075 65.7848 TC 47 13 193
2000050S13078 2000 11 SI MM FELICIA 2000-02-23 12:00:00 TS -26.8667 65.7000 55 978 reunion main 1083 1082 O____O______O_ jtwc_sh SH122000 -26.8000 65.6000 TS 40 0 -27.0000 65.9000 3 55 978 2.50000 4.00000 -26.8000 65.6000 TC 40 13 195
2000050S13078 2000 11 SI MM FELICIA 2000-02-23 15:00:00 TS -27.4691 65.5029 main 1112 1112 P____P______P_ SH122000 -27.4074 65.4570 TS 40 0 -27.5926 65.5948 3 52 980 -27.4074 65.4570 TC 40 13 198
2000050S13078 2000 11 SI MM FELICIA 2000-02-23 18:00:00 TS -28.0667 65.2667 50 983 reunion main 1145 1138 O____O______O_ jtwc_sh SH122000 -28.0000 65.3000 TS 40 0 -28.2000 65.2000 3 50 983 2.00000 3.50000 -28.0000 65.3000 TC 40 13 200
2000050S13078 2000 11 SI MM FELICIA 2000-02-23 21:00:00 TS -28.7006 65.0014 main 1175 1175 P____P______P_ SH122000 -28.5572 65.1092 TS 35 0 -28.9876 64.7859 3 45 986 -28.5572 65.1092 TC 35 14 203
2000050S13078 2000 11 SI MM FELICIA 2000-02-24 00:00:00 TS -29.3400 64.6400 40 990 reunion main 1203 1203 O____O______O_ jtwc_sh SH122000 -29.1000 64.8000 TD 30 -1 -29.7000 64.4000 3 40 990 2.00000 3.00000 -29.1000 64.8000 TC 30 14 210
2000050S13078 2000 11 SI MM FELICIA 2000-02-24 03:00:00 TS -29.8791 64.2129 main 1236 1236 P____P______P_ SH122000 -29.6483 64.3068 TD 27 -1 -30.1098 64.1191 3 37 991 -29.6483 64.3068 TC 27 12 215
2000050S13078 2000 11 SI MM FELICIA 2000-02-24 06:00:00 MX -30.3333 63.8333 35 993 reunion main 1253 1253 O____O______O_ jtwc_sh SH122000 -30.2000 63.7000 TD 25 -1 -30.4000 63.9000 5 35 993 9.90000 -30.2000 63.7000 TC 25 10 208
2000050S13078 2000 11 SI MM FELICIA 2000-02-24 09:00:00 ET -30.7650 63.6701 main 1297 1292 _____P________ SH122000 TD -1 -30.7650 63.6701 5 32 994 TC 8 200
2000050S13078 2000 11 SI MM FELICIA 2000-02-24 12:00:00 ET -31.1000 63.5000 30 995 reunion main 1317 1317 _____O________ -31.1000 63.5000 5 30 995 9.90000 7 200
2000050S13078 2000 11 SI MM FELICIA 2000-02-24 15:00:00 ET -31.3799 63.4049 main 1343 1343 _____P________ -31.3799 63.4049 5 30 995 5 190
2000050S13078 2000 11 SI MM FELICIA 2000-02-24 18:00:00 ET -31.6000 63.4000 30 996 reunion main 1363 1363 _____O________ -31.6000 63.4000 5 30 996 9.90000 4 173
2000050S13078 2000 11 SI MM FELICIA 2000-02-24 21:00:00 ET -31.7725 63.4699 main 1387 1387 _____P________ -31.7725 63.4699 5 30 996 3 151
2000050S13078 2000 11 SI MM FELICIA 2000-02-25 00:00:00 ET -31.9000 63.6000 30 997 reunion main 1401 1401 _____O________ -31.9000 63.6000 5 30 997 9.90000 4 145
2000050S13078 2000 11 SI MM FELICIA 2000-02-25 03:00:00 ET -32.0749 63.7271 main 1426 1426 _____P________ -32.0749 63.7271 5 27 998 3 128
2000050S13078 2000 11 SI MM FELICIA 2000-02-25 06:00:00 ET -32.1000 63.9000 25 999 reunion main 1434 1418 _____O________ -32.1000 63.9000 5 25 999 9.90000 5 56
2000050S13078 2000 11 SI MM FELICIA 2000-02-25 09:00:00 ET -31.8102 64.1885 main 1418 1388 _____P________ -31.8102 64.1885 5 25 999 8 31
2000050S13078 2000 11 SI MM FELICIA 2000-02-25 12:00:00 ET -31.4000 64.4000 25 1000 reunion main 1388 1359 _____O________ -31.4000 64.4000 5 25 1000 9.90000 7 12
2000050S13078 2000 11 SI MM FELICIA 2000-02-25 15:00:00 ET -31.0924 64.3672 main 1359 1321 _____P________ -31.0924 64.3672 5 22 1001 6 344
2000050S13078 2000 11 SI MM FELICIA 2000-02-25 18:00:00 ET -30.8000 64.2000 20 1003 reunion main 1321 1282 _____O________ -30.8000 64.2000 5 20 1003 9.90000 7 333
2000050S13078 2000 11 SI MM FELICIA 2000-02-25 21:00:00 ET -30.5074 64.0302 main 1282 1244 _____P________ -30.5074 64.0302 5 20 1004 7 330
2000050S13078 2000 11 SI MM FELICIA 2000-02-26 00:00:00 ET -30.2000 63.8000 20 1005 reunion main 1244 1200 _____O________ -30.2000 63.8000 5 20 1005 9.90000 8 326
2000050S13078 2000 11 SI MM FELICIA 2000-02-26 03:00:00 ET -29.8575 63.5226 main 1200 1147 _____P________ -29.8575 63.5226 5 20 1006 9 323
2000050S13078 2000 11 SI MM FELICIA 2000-02-26 06:00:00 TS -29.5000 63.2000 20 1008 reunion main 1147 1104 _____O________ -29.5000 63.2000 6 20 1008 9.90000 9 321
2000050S13078 2000 11 SI MM FELICIA 2000-02-26 09:00:00 TS -29.1477 62.8546 main 1094 1046 _____P________ -29.1477 62.8546 6 17 1009 9 319
2000050S13078 2000 11 SI MM FELICIA 2000-02-26 12:00:00 TS -28.8000 62.5000 15 1010 reunion main 1046 _____O________ -28.8000 62.5000 6 15 1010 9.90000 9 318

About IBTrACS Database

This database is a web-friendly format of International Best Track Archive for Climate Stewardship (IBTrACS), a global best track data archive curated by NOAA dating back to 1842.

Updated: 2021-12-01